Time;durP1;ratioP1;P1;durP2;ratioP2;P2;SDS_P1;SDS_P2;PMS_P1;PMS_P2;Temp;Humidity;BMP_temperature;BMP_pressure;BME280_temperature;BME280_humidity;BME280_pressure;Samples;Min_cycle;Max_cycle;Signal;HPM_P1;HPM_P2
2021/12/16 00:04:01;;;;;;;;;;;;;;;-144.99;100.00;52682.50;5068109;28;20047;-63
2021/12/16 00:09:14;;;;;;;;;;;;;;;-144.99;100.00;52696.78;5049260;28;20115;-62
2021/12/16 00:31:17;;;;;;;;;;;;;;;-144.99;100.00;52684.53;5070923;28;19999;-62
2021/12/16 00:33:46;;;;;;;;;;;;;;;-144.99;100.00;52647.84;5070021;28;19992;-64
2021/12/16 00:36:13;;;;;;;;;;;;;;;-144.99;100.00;52680.47;5068873;28;19979;-63
2021/12/16 00:38:41;;;;;;;;;;;;;;;-144.99;100.00;52660.09;5070222;28;19995;-63
2021/12/16 00:41:09;;;;;;;;;;;;;;;-144.99;100.00;52696.78;5070400;28;19973;-62
2021/12/16 00:43:41;;;;;;;;;;;;;;;-144.99;100.00;52660.09;5070203;28;19997;-62
2021/12/16 00:46:18;;;;;;;;;;;;;;;-144.99;100.00;52692.69;5068362;28;20130;-63
2021/12/16 00:49:17;;;;;;;;;;;;;;;-144.99;100.00;52717.16;5070125;28;20445;-63
2021/12/16 00:54:27;;;;;;;;;;;;;;;-144.99;100.00;52684.53;5069927;28;20015;-62
2021/12/16 00:56:59;;;;;;;;;;;;;;;-144.99;100.00;52651.94;5069093;28;19973;-62
2021/12/16 00:59:31;;;;;;;;;;;;;;;-144.99;100.00;52664.16;5059498;28;19977;-62
2021/12/16 01:02:10;;;;;;;;;;;;;;;-144.99;100.00;52615.25;5068497;28;19993;-62
2021/12/16 01:07:49;;;;;;;;;;;;;;;-144.99;100.00;52682.50;5058297;28;20070;-64
2021/12/16 01:35:04;;;;;;;;;;;;;;;-144.99;100.00;52688.63;5035134;28;19996;-61
2021/12/16 01:40:25;;;;;;;;;;;;;;;-144.99;100.00;52615.25;5064327;28;20380;-59
2021/12/16 01:45:55;;;;;;;;;;;;;;;-144.99;100.00;52656.00;5060156;28;19988;-61
2021/12/16 01:51:22;;;;;;;;;;;;;;;-144.99;100.00;52676.38;5059421;28;20150;-61
2021/12/16 01:54:16;;;;;;;;;;;;;;;-144.99;100.00;52660.09;5068953;28;19996;-61
2021/12/16 01:56:46;;;;;;;;;;;;;;;-144.99;100.00;52680.47;5060082;28;19981;-61
2021/12/16 01:59:18;;;;;;;;;;;;;;;-144.99;100.00;52660.09;5069503;28;20450;-60
2021/12/16 02:01:46;;;;;;;;;;;;;;;-144.99;100.00;52647.84;5069267;28;19973;-61
2021/12/16 02:04:19;;;;;;;;;;;;;;;-144.99;100.00;52684.53;5068880;28;20341;-61
2021/12/16 02:07:01;;;;;;;;;;;;;;;-144.99;100.00;52658.03;5067882;28;19973;-60
2021/12/16 02:09:33;;;;;;;;;;;;;;;-144.99;100.00;52635.63;5069807;28;19977;-61
2021/12/16 02:12:08;;;;;;;;;;;;;;;-144.99;100.00;52670.28;5069965;28;20028;-61
2021/12/16 02:28:40;;;;;;;;;;;;;;;-144.99;100.00;52660.09;5062472;28;20024;-59
2021/12/16 02:31:24;;;;;;;;;;;;;;;-144.99;100.00;52649.88;5069175;28;19976;-61
2021/12/16 02:36:43;;;;;;;;;;;;;;;-144.99;100.00;52700.84;5052562;28;19966;-60
2021/12/16 02:39:11;;;;;;;;;;;;;;;-144.99;100.00;52676.38;5060661;28;20488;-61
2021/12/16 02:41:40;;;;;;;;;;;;;;;-144.99;100.00;52641.72;5069426;28;20441;-60
2021/12/16 02:49:32;;;;;;;;;;;;;;;-144.99;100.00;52664.16;5023974;28;20449;-58
2021/12/16 02:51:59;;;;;;;;;;;;;;;-144.99;100.00;52684.53;5070818;28;19980;-59
2021/12/16 02:54:27;;;;;;;;;;;;;;;-144.99;100.00;52686.59;5070421;28;19989;-59
2021/12/16 02:56:54;;;;;;;;;;;;;;;-144.99;100.00;52625.44;5064309;28;20059;-59
2021/12/16 02:59:26;;;;;;;;;;;;;;;-144.99;100.00;52674.34;5072004;28;19992;-58
2021/12/16 03:01:53;;;;;;;;;;;;;;;-144.99;100.00;52639.69;5072465;28;20353;-59
2021/12/16 03:04:20;;;;;;;;;;;;;;;-144.99;100.00;52651.94;5070067;28;20381;-60
2021/12/16 03:06:48;;;;;;;;;;;;;;;-144.99;100.00;52639.69;5072550;28;19992;-59
2021/12/16 03:09:17;;;;;;;;;;;;;;;-144.99;100.00;52639.69;5071595;28;19980;-59
2021/12/16 03:11:55;;;;;;;;;;;;;;;-144.99;100.00;52680.47;5072121;28;19995;-59
2021/12/16 03:14:33;;;;;;;;;;;;;;;-144.99;100.00;52653.97;5071010;28;20039;-59
2021/12/16 03:17:11;;;;;;;;;;;;;;;-144.99;100.00;52664.16;5070944;28;20035;-59
2021/12/16 03:19:51;;;;;;;;;;;;;;;-144.99;100.00;52656.00;5071594;28;19981;-58
2021/12/16 03:22:37;;;;;;;;;;;;;;;-144.99;100.00;52629.50;5072194;28;19988;-58
2021/12/16 03:25:16;;;;;;;;;;;;;;;-144.99;100.00;52656.00;5070049;28;19997;-58
2021/12/16 03:30:51;;;;;;;;;;;;;;;-144.99;100.00;52674.34;5064283;28;19977;-58
2021/12/16 03:33:43;;;;;;;;;;;;;;;-144.99;100.00;52647.84;5066557;28;20038;-58
2021/12/16 03:36:25;;;;;;;;;;;;;;;-144.99;100.00;52684.53;5061474;28;20380;-58
2021/12/16 03:38:53;;;;;;;;;;;;;;;-144.99;100.00;52653.97;5071258;28;20004;-58
2021/12/16 03:41:21;;;;;;;;;;;;;;;-144.99;100.00;52615.25;5071908;28;19977;-58
2021/12/16 03:43:49;;;;;;;;;;;;;;;-144.99;100.00;52631.53;5071199;28;20075;-58
2021/12/16 03:46:26;;;;;;;;;;;;;;;-144.99;100.00;52684.53;5054852;28;20052;-58
2021/12/16 03:48:56;;;;;;;;;;;;;;;-144.99;100.00;52651.94;5068959;28;20289;-58
2021/12/16 03:51:23;;;;;;;;;;;;;;;-144.99;100.00;52656.00;5071877;28;19988;-58
2021/12/16 03:53:51;;;;;;;;;;;;;;;-144.99;100.00;52656.00;5071527;28;20000;-58
2021/12/16 03:56:17;;;;;;;;;;;;;;;-144.99;100.00;52668.22;5063577;28;19973;-59
2021/12/16 03:58:46;;;;;;;;;;;;;;;-144.99;100.00;52635.63;5071517;28;20387;-59
2021/12/16 04:01:14;;;;;;;;;;;;;;;-144.99;100.00;52700.84;5067694;28;19980;-58
2021/12/16 04:03:41;;;;;;;;;;;;;;;-144.99;100.00;52631.53;5070051;28;19996;-59
2021/12/16 04:06:08;;;;;;;;;;;;;;;-144.99;100.00;52674.34;5070115;28;19981;-59
2021/12/16 04:08:34;;;;;;;;;;;;;;;-144.99;100.00;52668.22;5065072;28;19980;-59
2021/12/16 04:11:04;;;;;;;;;;;;;;;-144.99;100.00;52647.84;5071195;28;19976;-59
2021/12/16 04:13:35;;;;;;;;;;;;;;;-144.99;100.00;52656.00;5070763;28;20050;-58
2021/12/16 04:16:03;;;;;;;;;;;;;;;-144.99;100.00;52688.63;5071230;28;19981;-58
2021/12/16 04:18:30;;;;;;;;;;;;;;;-144.99;100.00;52647.84;5069552;28;19977;-58
2021/12/16 04:20:56;;;;;;;;;;;;;;;-144.99;100.00;52635.63;5063184;28;19968;-58
2021/12/16 04:23:22;;;;;;;;;;;;;;;-144.99;100.00;52631.53;5071249;28;20001;-59
2021/12/16 04:25:49;;;;;;;;;;;;;;;-144.99;100.00;52672.31;5071013;28;20176;-61
2021/12/16 04:28:18;;;;;;;;;;;;;;;-144.99;100.00;52619.31;5069041;28;19979;-61
2021/12/16 04:30:45;;;;;;;;;;;;;;;-144.99;100.00;52651.94;5070425;28;19975;-61
2021/12/16 04:33:13;;;;;;;;;;;;;;;-144.99;100.00;52649.88;5069572;28;19973;-60
2021/12/16 04:35:40;;;;;;;;;;;;;;;-144.99;100.00;52649.88;5070313;28;19995;-60
2021/12/16 04:38:08;;;;;;;;;;;;;;;-144.99;100.00;52668.22;5066180;28;19973;-60
2021/12/16 04:40:36;;;;;;;;;;;;;;;-144.99;100.00;52627.47;5067242;28;19980;-60
2021/12/16 04:43:04;;;;;;;;;;;;;;;-144.99;100.00;52635.63;5070258;28;19996;-60
2021/12/16 04:45:31;;;;;;;;;;;;;;;-144.99;100.00;52631.53;5094322;22;20004;-70
2021/12/16 04:47:59;;;;;;;;;;;;;;;-144.99;100.00;52658.03;5091520;28;19987;-70
2021/12/16 04:50:26;;;;;;;;;;;;;;;-144.99;100.00;52656.00;5092307;28;19972;-69
2021/12/16 04:52:53;;;;;;;;;;;;;;;-144.99;100.00;52660.09;5091997;28;19980;-67
2021/12/16 04:55:20;;;;;;;;;;;;;;;-144.99;100.00;52662.13;5090623;28;20003;-67
2021/12/16 04:57:47;;;;;;;;;;;;;;;-144.99;100.00;52651.94;5092833;28;20025;-67
2021/12/16 05:00:17;;;;;;;;;;;;;;;-144.99;100.00;52623.38;5081842;28;20074;-67
2021/12/16 05:02:44;;;;;;;;;;;;;;;-144.99;100.00;52647.84;5092198;28;20468;-67
2021/12/16 05:05:11;;;;;;;;;;;;;;;-144.99;100.00;52643.78;5091373;28;20003;-67
2021/12/16 05:07:40;;;;;;;;;;;;;;;-144.99;100.00;52664.16;5092017;28;19980;-67
2021/12/16 05:10:07;;;;;;;;;;;;;;;-144.99;100.00;52619.31;5084476;28;19987;-67
2021/12/16 05:12:36;;;;;;;;;;;;;;;-144.99;100.00;52643.78;5086907;28;20017;-67
2021/12/16 05:15:05;;;;;;;;;;;;;;;-144.99;100.00;52627.47;5090756;28;20228;-67
2021/12/16 05:17:36;;;;;;;;;;;;;;;-144.99;100.00;52643.78;5091969;28;20431;-69
2021/12/16 05:20:08;;;;;;;;;;;;;;;-144.99;100.00;52631.53;5089796;28;19984;-70
2021/12/16 05:25:29;;;;;;;;;;;;;;;-144.99;100.00;52668.22;5081972;28;20260;-68
2021/12/16 05:27:55;;;;;;;;;;;;;;;-144.99;100.00;52704.94;5092162;28;20453;-68
2021/12/16 05:30:22;;;;;;;;;;;;;;;-144.99;100.00;52639.69;5087129;28;19973;-68
2021/12/16 05:32:48;;;;;;;;;;;;;;;-144.99;100.00;52651.94;5092960;28;19979;-68
2021/12/16 05:35:16;;;;;;;;;;;;;;;-144.99;100.00;52619.31;5092107;28;19989;-69
2021/12/16 05:37:44;;;;;;;;;;;;;;;-144.99;100.00;52625.44;5092859;28;19985;-69
2021/12/16 05:40:12;;;;;;;;;;;;;;;-144.99;100.00;52635.63;5090336;28;20452;-69
2021/12/16 05:42:39;;;;;;;;;;;;;;;-144.99;100.00;52643.78;5092064;28;19990;-68
2021/12/16 05:45:07;;;;;;;;;;;;;;;-144.99;100.00;52617.28;5081969;28;20001;-68
2021/12/16 05:47:33;;;;;;;;;;;;;;;-144.99;100.00;52656.00;5091496;28;19991;-68
2021/12/16 05:50:00;;;;;;;;;;;;;;;-144.99;100.00;52607.09;5091851;28;19987;-69
2021/12/16 05:52:26;;;;;;;;;;;;;;;-144.99;100.00;52611.16;5091525;28;19972;-66
2021/12/16 05:54:53;;;;;;;;;;;;;;;-144.99;100.00;52656.00;5090967;28;20091;-66
2021/12/16 05:57:19;;;;;;;;;;;;;;;-144.99;100.00;52615.25;5091382;28;20003;-66
2021/12/16 05:59:47;;;;;;;;;;;;;;;-144.99;100.00;52637.66;5091791;28;19987;-66
2021/12/16 06:02:13;;;;;;;;;;;;;;;-144.99;100.00;52635.63;5089226;28;19976;-66
2021/12/16 06:04:40;;;;;;;;;;;;;;;-144.99;100.00;52625.44;5090572;28;20360;-67
2021/12/16 06:07:07;;;;;;;;;;;;;;;-144.99;100.00;52631.53;5091859;28;19981;-66
2021/12/16 06:09:34;;;;;;;;;;;;;;;-144.99;100.00;52643.78;5090764;28;20028;-66
2021/12/16 06:12:01;;;;;;;;;;;;;;;-144.99;100.00;52660.09;5087407;28;19980;-67
2021/12/16 06:14:42;;;;;;;;;;;;;;;-144.99;100.00;52651.94;5087921;28;19992;-66
2021/12/16 06:26:24;;;;;;;;;;;;;;;-144.99;100.00;52629.50;5081664;28;20484;-67
2021/12/16 06:28:21;;;;;;;;;;;;;;;-144.99;100.00;52647.84;5095266;28;19992;-67
2021/12/16 06:30:48;;;;;;;;;;;;;;;-144.99;100.00;52627.47;5094655;28;20033;-67
2021/12/16 06:33:17;;;;;;;;;;;;;;;-144.99;100.00;52633.59;5091671;28;20502;-66
2021/12/16 06:35:44;;;;;;;;;;;;;;;-144.99;100.00;52676.38;5094418;28;20015;-67
2021/12/16 06:38:10;;;;;;;;;;;;;;;-144.99;100.00;52639.69;5094459;28;19961;-67
2021/12/16 06:40:37;;;;;;;;;;;;;;;-144.99;100.00;52643.78;5094131;28;20447;-67
2021/12/16 06:43:05;;;;;;;;;;;;;;;-144.99;100.00;52643.78;5090299;28;19981;-67
2021/12/16 06:45:35;;;;;;;;;;;;;;;-144.99;100.00;52680.47;5091007;28;19955;-67
2021/12/16 06:48:06;;;;;;;;;;;;;;;-144.99;100.00;52641.72;5094710;28;19995;-67
2021/12/16 06:50:43;;;;;;;;;;;;;;;-144.99;100.00;52651.94;5094890;28;20399;-66
2021/12/16 06:53:12;;;;;;;;;;;;;;;-144.99;100.00;52660.09;5089469;28;20071;-66
2021/12/16 06:55:43;;;;;;;;;;;;;;;-144.99;100.00;52672.31;5093055;28;19973;-67
2021/12/16 06:58:18;;;;;;;;;;;;;;;-144.99;100.00;52647.84;5094348;28;19989;-67
2021/12/16 07:00:48;;;;;;;;;;;;;;;-144.99;100.00;52692.69;5094770;28;19980;-67
2021/12/16 07:03:21;;;;;;;;;;;;;;;-144.99;100.00;52660.09;5092572;28;20028;-67
2021/12/16 07:05:52;;;;;;;;;;;;;;;-144.99;100.00;52676.38;5092068;28;20044;-67
2021/12/16 07:08:19;;;;;;;;;;;;;;;-144.99;100.00;52656.00;5094401;28;19985;-67
2021/12/16 07:10:46;;;;;;;;;;;;;;;-144.99;100.00;52627.47;5095028;28;20348;-67
2021/12/16 07:13:18;;;;;;;;;;;;;;;-144.99;100.00;52647.84;5094572;28;19977;-67
2021/12/16 07:15:45;;;;;;;;;;;;;;;-144.99;100.00;52633.59;5089750;28;20008;-67
2021/12/16 07:18:11;;;;;;;;;;;;;;;-144.99;100.00;52607.09;5082350;28;19981;-67
2021/12/16 07:20:38;;;;;;;;;;;;;;;-144.99;100.00;52619.31;5094246;28;19987;-66
2021/12/16 07:23:07;;;;;;;;;;;;;;;-144.99;100.00;52651.94;5096490;28;19991;-66
2021/12/16 07:25:34;;;;;;;;;;;;;;;-144.99;100.00;52621.34;5095026;28;19996;-66
2021/12/16 07:28:03;;;;;;;;;;;;;;;-144.99;100.00;52674.34;5101253;28;20348;-66
2021/12/16 07:30:30;;;;;;;;;;;;;;;-144.99;100.00;52631.53;5100258;28;20439;-68
2021/12/16 07:32:57;;;;;;;;;;;;;;;-144.99;100.00;52627.47;5098160;28;20460;-68
2021/12/16 07:35:25;;;;;;;;;;;;;;;-144.99;100.00;52643.78;5092543;28;19996;-69
2021/12/16 07:37:51;;;;;;;;;;;;;;;-144.99;100.00;52627.47;5092225;28;19977;-71
2021/12/16 07:40:22;;;;;;;;;;;;;;;-144.99;100.00;52643.78;5091138;28;20437;-68
2021/12/16 07:43:00;;;;;;;;;;;;;;;-144.99;100.00;52635.63;5089929;28;19976;-69
2021/12/16 07:45:27;;;;;;;;;;;;;;;-144.99;100.00;52594.84;5082160;28;20140;-69
2021/12/16 07:47:53;;;;;;;;;;;;;;;-144.99;100.00;52623.38;5091016;28;20445;-67
2021/12/16 07:50:20;;;;;;;;;;;;;;;-144.99;100.00;52629.50;5091316;28;20322;-66
2021/12/16 07:52:46;;;;;;;;;;;;;;;-144.99;100.00;52615.25;5091675;28;20011;-67
2021/12/16 07:55:14;;;;;;;;;;;;;;;-144.99;100.00;52647.84;5088984;28;19999;-67
2021/12/16 07:57:42;;;;;;;;;;;;;;;-144.99;100.00;52611.16;5084020;28;19984;-67
2021/12/16 08:00:11;;;;;;;;;;;;;;;-144.99;100.00;52639.69;5087020;28;19999;-67
2021/12/16 08:02:38;;;;;;;;;;;;;;;-144.99;100.00;52647.84;5090943;28;19979;-67
2021/12/16 08:05:05;;;;;;;;;;;;;;;-144.99;100.00;52651.94;5090360;28;20614;-67
2021/12/16 08:07:31;;;;;;;;;;;;;;;-144.99;100.00;52623.38;5085081;28;19981;-65
2021/12/16 08:09:58;;;;;;;;;;;;;;;-144.99;100.00;52590.78;5089861;28;19980;-66
2021/12/16 08:12:24;;;;;;;;;;;;;;;-144.99;100.00;52641.72;5090647;28;19988;-65
2021/12/16 08:14:52;;;;;;;;;;;;;;;-144.99;100.00;52623.38;5090168;28;19996;-68
2021/12/16 08:17:18;;;;;;;;;;;;;;;-144.99;100.00;52603.00;5082891;28;19976;-68
2021/12/16 08:19:46;;;;;;;;;;;;;;;-144.99;100.00;52631.53;5089989;28;19980;-68
2021/12/16 08:22:12;;;;;;;;;;;;;;;-144.99;100.00;52633.59;5090787;28;19984;-69
2021/12/16 08:24:39;;;;;;;;;;;;;;;-144.99;100.00;52664.16;5090168;28;20006;-66
2021/12/16 08:27:06;;;;;;;;;;;;;;;-144.99;100.00;52639.69;5092631;28;19980;-66
2021/12/16 08:29:32;;;;;;;;;;;;;;;-144.99;100.00;52653.97;5096466;28;19976;-66
2021/12/16 08:32:00;;;;;;;;;;;;;;;-144.99;100.00;52676.38;5097058;28;19992;-66
2021/12/16 08:34:30;;;;;;;;;;;;;;;-144.99;100.00;52600.97;5098057;28;19988;-67
2021/12/16 08:36:56;;;;;;;;;;;;;;;-144.99;100.00;52603.00;5097514;28;19976;-66
2021/12/16 08:39:25;;;;;;;;;;;;;;;-144.99;100.00;52631.53;5098189;28;20449;-67
2021/12/16 08:41:53;;;;;;;;;;;;;;;-144.99;100.00;52635.63;5099359;28;20129;-67
2021/12/16 08:44:20;;;;;;;;;;;;;;;-144.99;100.00;52607.09;5097833;28;20004;-67
2021/12/16 08:46:50;;;;;;;;;;;;;;;-144.99;100.00;52615.25;5095192;28;20005;-66
2021/12/16 08:49:17;;;;;;;;;;;;;;;-144.99;100.00;52623.38;5085152;28;19988;-66
2021/12/16 08:51:45;;;;;;;;;;;;;;;-144.99;100.00;52619.31;5092428;28;19987;-67
2021/12/16 08:54:12;;;;;;;;;;;;;;;-144.99;100.00;52600.97;5092989;28;19987;-67
2021/12/16 08:56:39;;;;;;;;;;;;;;;-144.99;100.00;52607.09;5090033;28;20468;-66
2021/12/16 08:59:05;;;;;;;;;;;;;;;-144.99;100.00;52651.94;5084404;28;19983;-66
2021/12/16 09:01:33;;;;;;;;;;;;;;;-144.99;100.00;52647.84;5089863;28;19980;-66
2021/12/16 09:04:00;;;;;;;;;;;;;;;-144.99;100.00;52651.94;5090443;28;19996;-72
2021/12/16 09:06:28;;;;;;;;;;;;;;;-144.99;100.00;52631.53;5090198;28;20269;-72
2021/12/16 09:08:55;;;;;;;;;;;;;;;-144.99;100.00;52631.53;5087915;28;19976;-71
2021/12/16 09:11:23;;;;;;;;;;;;;;;-144.99;100.00;52631.53;5089640;28;19980;-71
2021/12/16 09:13:51;;;;;;;;;;;;;;;-144.99;100.00;52603.00;5089079;28;19988;-71
2021/12/16 09:16:20;;;;;;;;;;;;;;;-144.99;100.00;52643.78;5089677;28;19990;-72
2021/12/16 09:18:47;;;;;;;;;;;;;;;-144.99;100.00;52627.47;5087301;28;19944;-72
2021/12/16 09:21:15;;;;;;;;;;;;;;;-144.99;100.00;52594.84;5085629;28;20433;-72
2021/12/16 09:23:44;;;;;;;;;;;;;;;-144.99;100.00;52570.38;5088294;28;20000;-72
2021/12/16 09:26:11;;;;;;;;;;;;;;;-144.99;100.00;52580.59;5090936;28;19996;-72
2021/12/16 09:28:37;;;;;;;;;;;;;;;-144.99;100.00;52590.78;5099543;28;20006;-72
2021/12/16 09:31:04;;;;;;;;;;;;;;;-144.99;100.00;52607.09;5101759;28;19981;-72
2021/12/16 09:33:31;;;;;;;;;;;;;;;-144.99;100.00;52588.75;5102333;28;19996;-72
2021/12/16 09:35:59;;;;;;;;;;;;;;;-144.99;100.00;52582.63;5102167;28;20132;-71
2021/12/16 09:38:26;;;;;;;;;;;;;;;-144.99;100.00;52603.00;5102190;28;19995;-71
2021/12/16 09:40:55;;;;;;;;;;;;;;;-144.99;100.00;52603.00;5089205;28;20003;-72
2021/12/16 09:43:23;;;;;;;;;;;;;;;-144.99;100.00;52619.31;5092144;28;19976;-74
2021/12/16 09:45:50;;;;;;;;;;;;;;;-144.99;100.00;52590.78;5079222;28;19988;-72
2021/12/16 09:48:17;;;;;;;;;;;;;;;-144.99;100.00;52562.25;5082705;28;19980;-73
2021/12/16 09:50:43;;;;;;;;;;;;;;;-144.99;100.00;52603.00;5084054;28;19976;-72
2021/12/16 09:53:10;;;;;;;;;;;;;;;-144.99;100.00;52590.78;5088367;28;19987;-72
2021/12/16 09:55:36;;;;;;;;;;;;;;;-144.99;100.00;52574.47;5088238;28;20030;-72
2021/12/16 09:58:04;;;;;;;;;;;;;;;-144.99;100.00;52611.16;5086531;28;20003;-73
2021/12/16 10:00:31;;;;;;;;;;;;;;;-144.99;100.00;52547.97;5081512;28;20083;-72
2021/12/16 10:02:59;;;;;;;;;;;;;;;-144.99;100.00;52578.53;5088891;28;19968;-73
2021/12/16 10:05:25;;;;;;;;;;;;;;;-144.99;100.00;52598.94;5079156;28;19996;-73
2021/12/16 10:07:52;;;;;;;;;;;;;;;-144.99;100.00;52590.78;5086014;28;20327;-73
2021/12/16 10:10:20;;;;;;;;;;;;;;;-144.99;100.00;52603.00;5088659;28;19976;-72
2021/12/16 10:12:50;;;;;;;;;;;;;;;-144.99;100.00;52574.47;5091279;28;19995;-73
2021/12/16 10:18:05;;;;;;;;;;;;;;;-144.99;100.00;52592.81;5076044;28;19995;-72
2021/12/16 10:20:33;;;;;;;;;;;;;;;-144.99;100.00;52578.53;5089162;28;19981;-73
2021/12/16 10:23:04;;;;;;;;;;;;;;;-144.99;100.00;52617.28;5089237;28;19984;-72
2021/12/16 10:25:33;;;;;;;;;;;;;;;-144.99;100.00;52623.38;5089987;28;20000;-72
2021/12/16 10:28:03;;;;;;;;;;;;;;;-144.99;100.00;52586.69;5088444;28;20436;-72
2021/12/16 10:30:38;;;;;;;;;;;;;;;-144.99;100.00;52596.88;5088776;28;19980;-73
2021/12/16 10:33:10;;;;;;;;;;;;;;;-144.99;100.00;52541.84;5086470;28;19981;-73
2021/12/16 10:35:37;;;;;;;;;;;;;;;-144.99;100.00;52570.38;5084667;28;20065;-72
2021/12/16 10:38:06;;;;;;;;;;;;;;;-144.99;99.17;52570.38;5088804;28;19991;-72
2021/12/16 10:40:35;;;;;;;;;;;;;;;-144.99;95.93;52603.00;5089014;28;19983;-73
2021/12/16 10:43:04;;;;;;;;;;;;;;;-144.99;94.05;52529.63;5079714;28;19976;-72
2021/12/16 10:45:33;;;;;;;;;;;;;;;-144.99;92.68;52594.84;5083813;28;20281;-74
2021/12/16 10:48:13;;;;;;;;;;;;;;;-144.99;93.36;52554.09;5089584;28;19984;-74
2021/12/16 10:51:07;;;;;;;;;;;;;;;-144.99;90.25;52566.31;5097081;28;19980;-74
2021/12/16 10:53:48;;;;;;;;;;;;;;;-144.99;86.98;52590.78;5050049;28;20000;-73
2021/12/16 10:56:15;;;;;;;;;;;;;;;-144.99;88.28;52578.53;5091405;28;19976;-72
2021/12/16 10:58:51;;;;;;;;;;;;;;;-144.99;89.97;52586.69;5091533;28;19991;-72
2021/12/16 11:01:31;;;;;;;;;;;;;;;-144.99;90.44;52564.28;5093484;28;20386;-72
2021/12/16 11:03:59;;;;;;;;;;;;;;;-144.99;91.59;52586.69;5084075;28;20036;-73
2021/12/16 11:06:30;;;;;;;;;;;;;;;-144.99;92.15;52598.94;5096217;28;20000;-72
2021/12/16 11:09:18;;;;;;;;;;;;;;;-144.99;93.49;52603.00;5097071;28;20404;-72
2021/12/16 11:11:44;;;;;;;;;;;;;;;-144.99;93.31;52631.53;5087133;28;20497;-73
2021/12/16 11:14:10;;;;;;;;;;;;;;;-144.99;94.42;52619.31;5093653;28;20248;-72
2021/12/16 11:16:37;;;;;;;;;;;;;;;-144.99;92.05;52619.31;5087062;28;19991;-72
2021/12/16 11:19:06;;;;;;;;;;;;;;;-144.99;92.74;52580.59;5085450;28;19984;-72
2021/12/16 11:21:39;;;;;;;;;;;;;;;-144.99;92.54;52578.53;5097559;28;20071;-74
2021/12/16 11:24:21;;;;;;;;;;;;;;;-144.99;92.30;52605.03;5098739;28;19993;-72
2021/12/16 11:26:48;;;;;;;;;;;;;;;-144.99;92.14;52594.84;5098064;28;20026;-73
2021/12/16 11:29:14;;;;;;;;;;;;;;;-144.99;90.64;52609.13;5100203;28;20040;-72
2021/12/16 11:31:40;;;;;;;;;;;;;;;-144.99;93.86;52545.94;5100469;28;19991;-72
2021/12/16 11:34:10;;;;;;;;;;;;;;;-144.99;87.73;52582.63;5098019;28;20000;-72
2021/12/16 11:36:40;;;;;;;;;;;;;;;-144.99;81.53;52554.09;5100875;28;20068;-72
2021/12/16 11:39:08;;;;;;;;;;;;;;;-144.99;79.65;52554.09;5097969;28;19973;-72
2021/12/16 11:41:35;;;;;;;;;;;;;;;-144.99;80.70;52586.69;5096101;28;19975;-73
2021/12/16 11:44:04;;;;;;;;;;;;;;;-144.99;80.60;52598.94;5087626;28;19999;-73
2021/12/16 11:46:33;;;;;;;;;;;;;;;-144.99;81.15;52562.25;5101012;28;20160;-73
2021/12/16 11:49:01;;;;;;;;;;;;;;;-144.99;82.33;52578.53;5094629;28;20000;-74
2021/12/16 11:51:31;;;;;;;;;;;;;;;-144.99;83.08;52582.63;5100346;28;19976;-72
2021/12/16 11:54:00;;;;;;;;;;;;;;;-144.99;85.50;52603.00;5100732;28;19989;-74
2021/12/16 11:56:35;;;;;;;;;;;;;;;-144.99;87.08;52594.84;5096457;28;20360;-74
2021/12/16 11:59:01;;;;;;;;;;;;;;;-144.99;87.39;52611.16;5090419;28;20457;-73
2021/12/16 12:01:27;;;;;;;;;;;;;;;-144.99;85.70;52590.78;5090090;28;19972;-74
2021/12/16 12:04:00;;;;;;;;;;;;;;;-144.99;85.07;52607.09;5088996;28;19988;-72
2021/12/16 12:06:29;;;;;;;;;;;;;;;-144.99;83.81;52472.56;5089687;28;20001;-72
2021/12/16 12:08:57;;;;;;;;;;;;;;;-144.99;80.63;52545.94;5089697;28;20429;-73
2021/12/16 12:11:25;;;;;;;;;;;;;;;-144.99;76.84;52603.00;5090274;28;19984;-75
2021/12/16 12:13:54;;;;;;;;;;;;;;;-144.99;77.72;52627.47;5089875;28;20024;-73
2021/12/16 12:16:22;;;;;;;;;;;;;;;-144.99;78.62;52574.47;5087324;28;19989;-73
2021/12/16 12:18:50;;;;;;;;;;;;;;;-144.99;80.19;52570.38;5079746;28;19985;-74
2021/12/16 12:21:27;;;;;;;;;;;;;;;-144.99;81.49;52611.16;5089671;28;19981;-73
2021/12/16 12:23:56;;;;;;;;;;;;;;;-144.99;83.27;52580.59;5088955;28;20421;-73
2021/12/16 12:26:23;;;;;;;;;;;;;;;-144.99;84.26;52623.38;5076165;28;20483;-72
2021/12/16 12:28:53;;;;;;;;;;;;;;;-144.99;85.46;52607.09;5090264;28;20368;-72
2021/12/16 12:31:21;;;;;;;;;;;;;;;-144.99;86.03;52639.69;5089903;28;20561;-73
2021/12/16 12:33:48;;;;;;;;;;;;;;;-144.99;87.11;52609.13;5088983;28;20032;-72
2021/12/16 12:36:15;;;;;;;;;;;;;;;-144.99;87.21;52629.50;5089796;28;20025;-73
2021/12/16 12:38:42;;;;;;;;;;;;;;;-144.99;88.70;52582.63;5089543;28;20022;-74
2021/12/16 12:41:10;;;;;;;;;;;;;;;-144.99;88.59;52590.78;5089985;28;20437;-72
2021/12/16 12:43:37;;;;;;;;;;;;;;;-144.99;88.20;52584.66;5089560;28;20284;-72
2021/12/16 12:46:06;;;;;;;;;;;;;;;-144.99;86.71;52631.53;5090004;28;20407;-72
2021/12/16 12:48:33;;;;;;;;;;;;;;;-144.99;85.25;52582.63;5089948;28;19988;-72
2021/12/16 12:50:59;;;;;;;;;;;;;;;-144.99;84.89;52582.63;5090301;28;19984;-73
2021/12/16 12:53:27;;;;;;;;;;;;;;;-144.99;85.54;52647.84;5089313;28;20032;-72
2021/12/16 12:55:56;;;;;;;;;;;;;;;-144.99;86.43;52613.19;5089963;28;20364;-72
2021/12/16 12:58:27;;;;;;;;;;;;;;;-144.99;86.48;52627.47;5089713;28;20006;-72
2021/12/16 13:00:55;;;;;;;;;;;;;;;-144.99;86.46;52631.53;5090817;28;19992;-71
2021/12/16 13:03:24;;;;;;;;;;;;;;;-144.99;87.03;52615.25;5089593;28;19984;-72
2021/12/16 13:05:51;;;;;;;;;;;;;;;-144.99;87.81;52643.78;5089402;28;20008;-71
2021/12/16 13:08:24;;;;;;;;;;;;;;;-144.99;88.80;52656.00;5091318;28;19984;-73
2021/12/16 13:10:50;;;;;;;;;;;;;;;-144.99;89.86;52631.53;5090134;28;19984;-72
2021/12/16 13:13:31;;;;;;;;;;;;;;;-144.99;89.46;52643.78;5084974;28;20425;-72
2021/12/16 13:16:19;;;;;;;;;;;;;;;-144.99;89.76;52603.00;5085422;28;20020;-73
2021/12/16 13:24:44;;;;;;;;;;;;;;;-144.99;89.78;52664.16;5088908;28;20046;-72
2021/12/16 13:27:22;;;;;;;;;;;;;;;-144.99;89.62;52660.09;5089233;28;20003;-72
2021/12/16 13:30:06;;;;;;;;;;;;;;;-144.99;90.26;52653.97;5088733;28;19980;-72
2021/12/16 13:32:42;;;;;;;;;;;;;;;-144.99;90.43;52680.47;5093281;28;20031;-72
2021/12/16 13:35:21;;;;;;;;;;;;;;;-144.99;90.93;52598.94;5089513;28;19992;-73
2021/12/16 13:37:48;;;;;;;;;;;;;;;-144.99;90.80;52629.50;5076616;28;19988;-73
2021/12/16 13:40:18;;;;;;;;;;;;;;;-144.99;91.25;52637.66;5087945;28;19988;-73
2021/12/16 13:42:48;;;;;;;;;;;;;;;-144.99;91.42;52645.81;5088591;28;20368;-72
2021/12/16 13:45:17;;;;;;;;;;;;;;;-144.99;91.49;52643.78;5077824;28;20005;-72
2021/12/16 13:47:59;;;;;;;;;;;;;;;-144.99;91.37;52645.81;5088971;28;20452;-73
2021/12/16 14:02:38;;;;;;;;;;;;;;;-144.99;94.04;52621.34;5090157;28;19983;-72
2021/12/16 14:05:19;;;;;;;;;;;;;;;-144.99;93.91;52672.31;5084460;28;20481;-72
2021/12/16 14:07:55;;;;;;;;;;;;;;;-144.99;93.91;52647.84;5088161;28;20083;-72
2021/12/16 14:10:29;;;;;;;;;;;;;;;-144.99;94.25;52635.63;5072361;28;19983;-72
2021/12/16 14:16:12;;;;;;;;;;;;;;;-144.99;94.55;52680.47;5080818;28;20027;-72
2021/12/16 14:24:57;;;;;;;;;;;;;;;-144.99;95.91;52692.69;5077934;28;20530;-73
2021/12/16 14:35:45;;;;;;;;;;;;;;;-144.99;97.29;52674.34;5081977;28;20086;-73
2021/12/16 14:38:38;;;;;;;;;;;;;;;-144.99;97.36;52668.22;5078947;28;19976;-71
2021/12/16 14:41:09;;;;;;;;;;;;;;;-144.99;97.64;52651.94;5084615;28;20299;-74
2021/12/16 14:43:40;;;;;;;;;;;;;;;-144.99;97.64;52692.69;5081670;28;20003;-73
2021/12/16 14:46:10;;;;;;;;;;;;;;;-144.99;98.15;52684.53;5080603;28;20360;-72
2021/12/16 14:48:38;;;;;;;;;;;;;;;-144.99;98.64;52660.09;5083327;28;20506;-72
2021/12/16 14:51:06;;;;;;;;;;;;;;;-144.99;98.30;52635.63;5086786;28;19980;-72
2021/12/16 14:53:33;;;;;;;;;;;;;;;-144.99;98.78;52688.63;5085461;28;20142;-72